Time;durP1;ratioP1;P1;durP2;ratioP2;P2;SDS_P1;SDS_P2;PMS_P1;PMS_P2;Temp;Humidity;BMP_temperature;BMP_pressure;BME280_temperature;BME280_humidity;BME280_pressure;Samples;Min_cycle;Max_cycle;Signal;HPM_P1;HPM_P2
2022/11/04 00:01:52;;;;;;;14.00;5.33;;;;;;;10.62;100.00;95337.00;5056487;28;20208;-71
2022/11/04 00:04:20;;;;;;;13.43;5.30;;;;;;;10.72;100.00;95334.00;5056108;28;20205;-71
2022/11/04 00:06:47;;;;;;;19.00;6.17;;;;;;;10.70;100.00;95346.53;5058141;28;20959;-71
2022/11/04 00:09:19;;;;;;;12.60;5.70;;;;;;;10.75;100.00;95349.38;5056660;28;20687;-71
2022/11/04 00:14:30;;;;;;;10.27;4.70;;;;;;;10.75;100.00;95355.47;5055615;28;20266;-71
2022/11/04 00:30:46;;;;;;;10.43;3.60;;;;;;;10.89;100.00;95351.06;5056850;28;20263;-71
2022/11/04 00:33:24;;;;;;;4.90;2.53;;;;;;;10.88;100.00;95355.50;5056188;28;20209;-71
2022/11/04 00:35:52;;;;;;;5.53;2.57;;;;;;;10.93;100.00;95358.34;5058432;28;20373;-71
2022/11/04 00:38:18;;;;;;;5.77;2.97;;;;;;;10.96;100.00;95371.94;5060998;28;20692;-71
2022/11/04 00:40:46;;;;;;;9.27;2.77;;;;;;;11.05;100.00;95362.81;5060620;28;20204;-71
2022/11/04 00:43:13;;;;;;;5.93;3.20;;;;;;;10.93;100.00;95363.59;5060126;28;20208;-71
2022/11/04 00:45:41;;;;;;;7.03;2.90;;;;;;;11.02;100.00;95357.13;5060369;28;20318;-71
2022/11/04 00:48:07;;;;;;;7.23;3.03;;;;;;;10.97;100.00;95347.22;5060863;28;20208;-71
2022/11/04 00:50:34;;;;;;;5.53;2.77;;;;;;;10.94;100.00;95344.16;5060535;28;20204;-71
2022/11/04 00:53:01;;;;;;;8.60;3.17;;;;;;;10.99;100.00;95347.00;5059345;28;20204;-71
2022/11/04 00:55:27;;;;;;;8.03;3.10;;;;;;;11.02;100.00;95336.88;5063957;28;20314;-71
2022/11/04 00:57:55;;;;;;;9.03;3.50;;;;;;;11.12;100.00;95353.09;5061446;28;20200;-71
2022/11/04 01:00:22;;;;;;;8.53;3.90;;;;;;;11.02;100.00;95372.94;5060463;28;20576;-71
2022/11/04 01:02:48;;;;;;;8.60;2.67;;;;;;;11.04;100.00;95369.09;5059610;28;20574;-71
2022/11/04 01:05:15;;;;;;;5.37;3.27;;;;;;;11.06;100.00;95375.00;5064887;28;20668;-71
2022/11/04 01:07:41;;;;;;;7.37;3.37;;;;;;;11.09;100.00;95382.50;5074992;28;20228;-71
2022/11/04 01:10:09;;;;;;;7.23;2.23;;;;;;;11.04;100.00;95374.38;5079222;28;20575;-71
2022/11/04 01:12:35;;;;;;;5.73;3.00;;;;;;;10.95;100.00;95375.56;5062831;28;20988;-71
2022/11/04 01:15:04;;;;;;;5.33;2.60;;;;;;;11.09;100.00;95377.22;5060114;28;20211;-71
2022/11/04 01:17:30;;;;;;;5.93;2.37;;;;;;;10.92;100.00;95382.25;5060269;28;20234;-71
2022/11/04 01:19:57;;;;;;;3.93;2.30;;;;;;;10.97;100.00;95391.19;5059712;28;20208;-71
2022/11/04 01:22:23;;;;;;;5.40;2.40;;;;;;;10.90;100.00;95386.94;5056462;28;20691;-71
2022/11/04 01:24:50;;;;;;;3.43;1.90;;;;;;;10.89;100.00;95388.75;5060663;28;20197;-71
2022/11/04 01:27:17;;;;;;;3.87;2.37;;;;;;;10.94;100.00;95397.66;5059758;28;20239;-71
2022/11/04 01:29:43;;;;;;;3.53;1.73;;;;;;;10.95;100.00;95394.03;5059728;28;20579;-71
2022/11/04 01:32:11;;;;;;;2.90;1.30;;;;;;;10.93;100.00;95404.97;5059668;28;20215;-71
2022/11/04 01:34:38;;;;;;;4.27;1.47;;;;;;;10.91;100.00;95401.72;5059208;28;21088;-71
2022/11/04 01:37:04;;;;;;;3.57;1.20;;;;;;;10.89;100.00;95395.84;5059730;28;20233;-71
2022/11/04 01:39:31;;;;;;;4.27;1.50;;;;;;;10.91;100.00;95401.72;5059733;28;20211;-71
2022/11/04 01:41:57;;;;;;;1.40;1.00;;;;;;;10.86;100.00;95390.97;5059577;28;20213;-71
2022/11/04 01:44:47;;;;;;;3.10;1.20;;;;;;;11.03;100.00;95395.66;5065028;28;20214;-71
2022/11/04 01:47:18;;;;;;;2.13;1.20;;;;;;;10.88;100.00;95391.59;5059521;28;20936;-71
2022/11/04 01:49:49;;;;;;;1.83;1.20;;;;;;;10.82;100.00;95376.56;5067672;28;20199;-71
2022/11/04 01:52:19;;;;;;;2.03;0.90;;;;;;;10.88;100.00;95391.59;5058994;28;21121;-71
2022/11/04 01:54:48;;;;;;;2.23;0.90;;;;;;;10.85;100.00;95381.44;5059323;28;20215;-71
2022/11/04 01:57:20;;;;;;;2.47;1.20;;;;;;;10.88;100.00;95375.78;5071171;28;20220;-70
2022/11/04 01:59:47;;;;;;;2.57;0.90;;;;;;;10.81;100.00;95375.75;5064215;28;20202;-70
2022/11/04 02:02:15;;;;;;;1.47;1.10;;;;;;;10.77;100.00;95373.69;5070147;28;20204;-70
2022/11/04 02:04:43;;;;;;;4.03;1.80;;;;;;;10.78;100.00;95370.91;5068033;28;20690;-70
2022/11/04 02:07:12;;;;;;;2.50;1.03;;;;;;;10.78;100.00;95370.91;5062569;28;20235;-67
2022/11/04 02:09:41;;;;;;;3.73;0.80;;;;;;;10.75;100.00;95366.00;5062467;28;20664;-69
2022/11/04 02:14:52;;;;;;;1.00;0.90;;;;;;;10.77;100.00;95363.16;5059358;28;20950;-70
2022/11/04 02:17:32;;;;;;;1.67;1.00;;;;;;;10.85;100.00;95366.44;5058629;28;20587;-70
2022/11/04 02:20:20;;;;;;;3.20;0.93;;;;;;;10.80;100.00;95368.06;5058915;28;20200;-70
2022/11/04 02:23:06;;;;;;;1.70;1.10;;;;;;;10.84;100.00;95364.00;5057606;28;20211;-69
2022/11/04 02:26:17;;;;;;;1.23;1.00;;;;;;;10.82;100.00;95371.28;5058750;28;20229;-70
2022/11/04 02:29:21;;;;;;;1.40;1.03;;;;;;;10.84;100.00;95364.00;5069091;28;20208;-69
2022/11/04 02:31:58;;;;;;;2.60;1.03;;;;;;;10.86;100.00;95361.97;5010773;28;20777;-68
2022/11/04 02:34:37;;;;;;;4.43;1.30;;;;;;;10.82;100.00;95360.75;5065838;28;20204;-70
2022/11/04 02:37:13;;;;;;;1.93;0.87;;;;;;;10.68;100.00;95359.91;5059591;28;20228;-69
2022/11/04 02:39:51;;;;;;;2.40;0.90;;;;;;;10.74;100.00;95368.84;5059001;28;20314;-70
2022/11/04 02:42:26;;;;;;;1.30;1.00;;;;;;;10.71;100.00;95367.41;5061470;28;20219;-70
2022/11/04 02:45:05;;;;;;;3.10;1.10;;;;;;;10.71;100.00;95363.97;5059947;28;20199;-68
2022/11/04 02:47:36;;;;;;;2.60;1.10;;;;;;;10.72;100.00;95371.69;5058660;28;20230;-68
2022/11/04 02:50:09;;;;;;;2.30;0.90;;;;;;;10.73;100.00;95369.84;5064361;28;20595;-70
2022/11/04 02:52:43;;;;;;;2.30;1.40;;;;;;;10.75;100.00;95365.19;5057587;28;20702;-70
2022/11/04 02:55:15;;;;;;;3.10;1.43;;;;;;;10.77;100.00;95358.72;5058400;28;20208;-68
2022/11/04 02:57:45;;;;;;;3.10;1.30;;;;;;;10.73;100.00;95357.50;5057455;28;20767;-70
2022/11/04 03:00:13;;;;;;;2.33;1.30;;;;;;;10.74;100.00;95353.84;5058573;28;21168;-67
2022/11/04 03:02:45;;;;;;;1.70;1.20;;;;;;;10.84;100.00;95350.84;5060017;28;20200;-69
2022/11/04 03:05:15;;;;;;;3.37;0.97;;;;;;;10.81;100.00;95338.06;5057761;28;20215;-70
2022/11/04 03:07:45;;;;;;;1.67;1.00;;;;;;;10.77;100.00;95342.91;5072219;28;20297;-70
2022/11/04 03:10:16;;;;;;;2.87;1.20;;;;;;;10.75;100.00;95337.03;5058245;28;20208;-70
2022/11/04 03:12:48;;;;;;;3.70;1.40;;;;;;;10.77;100.00;95336.81;5070115;28;20692;-70
2022/11/04 03:15:20;;;;;;;1.93;1.37;;;;;;;10.73;100.00;95328.53;5058047;28;20204;-70
2022/11/04 03:17:53;;;;;;;2.00;1.17;;;;;;;10.65;100.00;95335.78;5059237;28;20579;-70
2022/11/04 03:20:24;;;;;;;1.93;0.90;;;;;;;10.60;100.00;95338.19;5054014;28;20211;-69
2022/11/04 03:22:54;;;;;;;0.93;0.70;;;;;;;10.55;100.00;95336.19;5060504;28;20218;-68
2022/11/04 03:25:25;;;;;;;1.67;1.13;;;;;;;10.62;100.00;95334.34;5057831;28;20220;-68
2022/11/04 03:27:57;;;;;;;1.63;1.20;;;;;;;10.69;100.00;95334.38;5063042;28;20602;-68
2022/11/04 03:30:24;;;;;;;1.90;1.30;;;;;;;10.61;100.00;95342.47;5064626;28;21002;-68
2022/11/04 03:32:59;;;;;;;2.73;1.03;;;;;;;10.66;100.00;95350.59;5057809;28;20238;-70
2022/11/04 03:35:26;;;;;;;1.47;0.93;;;;;;;10.62;100.00;95354.63;5057671;28;20598;-69
2022/11/04 03:37:53;;;;;;;1.90;1.13;;;;;;;10.60;100.00;95362.75;5057215;28;20201;-69
2022/11/04 03:40:21;;;;;;;0.90;0.77;;;;;;;10.57;100.00;95363.13;5057510;28;20588;-69
2022/11/04 03:42:55;;;;;;;2.70;1.30;;;;;;;10.57;100.00;95352.56;5058187;28;20215;-69
2022/11/04 03:45:23;;;;;;;2.63;1.17;;;;;;;10.61;100.00;95358.28;5057654;28;20224;-70
2022/11/04 03:47:50;;;;;;;2.17;1.17;;;;;;;10.48;100.00;95364.28;5061199;28;20227;-70
2022/11/04 03:50:26;;;;;;;1.70;0.80;;;;;;;10.61;100.00;95364.34;5061579;28;20201;-69
2022/11/04 03:52:52;;;;;;;1.40;1.00;;;;;;;10.50;100.00;95372.00;5062697;28;20311;-69
2022/11/04 03:55:19;;;;;;;1.17;0.83;;;;;;;10.49;100.00;95383.56;5058168;28;20228;-70
2022/11/04 03:57:52;;;;;;;0.73;0.63;;;;;;;10.55;100.00;95388.03;5057321;28;20207;-70
2022/11/04 04:00:20;;;;;;;2.63;0.90;;;;;;;10.45;100.00;95382.31;5065702;28;20214;-69
2022/11/04 04:03:06;;;;;;;1.53;0.80;;;;;;;10.47;100.00;95377.66;5059481;28;20650;-69
2022/11/04 04:05:41;;;;;;;1.67;0.87;;;;;;;10.43;100.00;95365.91;5057255;28;20228;-70
2022/11/04 04:08:15;;;;;;;1.00;0.70;;;;;;;10.35;100.00;95366.88;5064373;28;20227;-68
2022/11/04 04:10:52;;;;;;;2.27;0.77;;;;;;;10.32;100.00;95379.63;5060106;28;20205;-70
2022/11/04 04:13:28;;;;;;;1.90;0.80;;;;;;;10.30;100.00;95381.66;5064008;28;20241;-69
2022/11/04 04:15:59;;;;;;;4.17;1.43;;;;;;;10.21;100.00;95371.47;5057352;28;20326;-69
2022/11/04 04:18:33;;;;;;;3.53;1.10;;;;;;;10.23;100.00;95370.25;5057213;28;20204;-68
2022/11/04 04:21:05;;;;;;;3.10;1.60;;;;;;;10.25;100.00;95378.78;5056934;28;20220;-70
2022/11/04 04:29:08;;;;;;;5.37;3.03;;;;;;;10.14;100.00;95387.22;5057002;28;20251;-70
2022/11/04 04:34:23;;;;;;;4.47;2.07;;;;;;;10.09;100.00;95388.81;5056010;28;20269;-67
2022/11/04 04:36:55;;;;;;;3.37;1.73;;;;;;;10.11;100.00;95398.16;5056842;28;20238;-70
2022/11/04 04:45:03;;;;;;;1.47;1.23;;;;;;;9.90;100.00;95371.91;5061598;28;20838;-69
2022/11/04 04:47:35;;;;;;;1.97;0.90;;;;;;;10.05;100.00;95377.88;5057275;28;20224;-70
2022/11/04 04:50:02;;;;;;;1.03;0.80;;;;;;;10.05;100.00;95364.72;5062052;28;20211;-70
2022/11/04 04:52:31;;;;;;;2.70;1.20;;;;;;;10.01;100.00;95368.75;5056373;28;20204;-69
2022/11/04 04:54:58;;;;;;;2.80;0.90;;;;;;;10.00;100.00;95377.63;5056918;28;20219;-70
2022/11/04 04:57:25;;;;;;;2.20;0.70;;;;;;;9.91;100.00;95381.41;5056813;28;20196;-69
2022/11/04 04:59:51;;;;;;;4.30;0.97;;;;;;;9.81;100.00;95383.59;5056066;28;20215;-70
2022/11/04 05:02:18;;;;;;;4.90;1.40;;;;;;;9.92;100.00;95392.75;5056565;28;20209;-70
2022/11/04 05:04:44;;;;;;;1.20;0.80;;;;;;;9.89;100.00;95399.22;5057660;28;20669;-70
2022/11/04 05:07:11;;;;;;;2.50;0.93;;;;;;;9.87;100.00;95387.25;5063519;28;20232;-69
2022/11/04 05:09:39;;;;;;;1.47;0.80;;;;;;;9.83;100.00;95363.13;5056320;28;20736;-70
2022/11/04 05:12:06;;;;;;;1.70;1.10;;;;;;;9.86;100.00;95344.34;5063013;28;20763;-69
2022/11/04 05:14:32;;;;;;;4.57;0.70;;;;;;;9.85;100.00;95342.72;5059752;28;20204;-68
2022/11/04 05:16:59;;;;;;;1.23;0.90;;;;;;;9.75;100.00;95359.88;5056248;28;20231;-69
2022/11/04 05:19:26;;;;;;;1.50;1.00;;;;;;;9.84;100.00;95387.66;5056715;28;20591;-70
2022/11/04 05:21:52;;;;;;;2.20;1.00;;;;;;;9.76;100.00;95393.88;5061749;28;20208;-70
2022/11/04 05:24:19;;;;;;;3.73;1.80;;;;;;;9.71;100.00;95396.25;5056544;28;20214;-68
2022/11/04 05:26:47;;;;;;;29.70;12.80;;;;;;;9.87;100.00;95369.63;5060001;28;20890;-69
2022/11/04 05:29:13;;;;;;;19.43;9.23;;;;;;;9.78;100.00;95362.91;5060261;28;20204;-67
2022/11/04 05:31:40;;;;;;;17.97;7.80;;;;;;;9.83;100.00;95365.78;5059821;28;20205;-69
2022/11/04 05:34:06;;;;;;;24.17;9.73;;;;;;;9.82;100.00;95382.56;5059297;28;20203;-70
2022/11/04 05:36:33;;;;;;;18.57;7.17;;;;;;;9.78;100.00;95386.56;5060044;28;20243;-70
2022/11/04 05:38:59;;;;;;;13.03;5.03;;;;;;;9.75;100.00;95394.88;5067674;28;20197;-70
2022/11/04 05:41:26;;;;;;;9.73;3.50;;;;;;;9.70;100.00;95412.25;5059769;28;20230;-68
2022/11/04 05:43:56;;;;;;;7.00;2.80;;;;;;;9.81;100.00;95416.97;5067118;28;20294;-68
2022/11/04 05:46:23;;;;;;;7.13;2.10;;;;;;;9.76;100.00;95425.44;5065323;28;21255;-68
2022/11/04 05:48:50;;;;;;;7.87;2.63;;;;;;;9.71;100.00;95427.81;5061091;28;20232;-70
2022/11/04 05:51:19;;;;;;;14.57;4.27;;;;;;;9.80;100.00;95441.63;5065545;28;20698;-69
2022/11/04 05:53:46;;;;;;;10.73;3.47;;;;;;;9.73;100.00;95444.22;5060312;28;20211;-70
2022/11/04 05:56:13;;;;;;;10.63;3.30;;;;;;;9.71;100.00;95446.25;5060039;28;20244;-69
2022/11/04 05:58:39;;;;;;;11.53;3.50;;;;;;;9.66;100.00;95444.34;5059600;28;20197;-70
2022/11/04 06:01:30;;;;;;;8.07;2.50;;;;;;;9.68;100.00;95442.38;5066909;28;20200;-68
2022/11/04 06:03:58;;;;;;;4.63;1.90;;;;;;;9.58;100.00;95431.34;5058124;28;21154;-68
2022/11/04 06:06:26;;;;;;;12.67;3.77;;;;;;;9.60;100.00;95424.91;5059096;28;20587;-70
2022/11/04 06:08:53;;;;;;;11.20;3.33;;;;;;;9.61;100.00;95417.81;5059664;28;20225;-69
2022/11/04 06:11:20;;;;;;;8.20;3.80;;;;;;;9.63;100.00;95418.44;5059241;28;20205;-70
2022/11/04 06:13:47;;;;;;;5.37;1.57;;;;;;;9.59;100.00;95414.56;5063539;28;20916;-68
2022/11/04 06:16:15;;;;;;;4.07;1.30;;;;;;;9.67;100.00;95422.31;5060253;28;20704;-68
2022/11/04 06:18:42;;;;;;;3.53;1.20;;;;;;;10.03;100.00;95422.00;5064834;28;20196;-70
2022/11/04 06:21:11;;;;;;;16.33;1.60;;;;;;;10.43;100.00;95410.69;5065433;28;20212;-70
2022/11/04 06:23:37;;;;;;;3.43;1.20;;;;;;;10.12;100.00;95405.06;5064078;28;20200;-72
2022/11/04 06:26:04;;;;;;;4.43;1.40;;;;;;;9.92;100.00;95396.19;5066751;28;20220;-68
2022/11/04 06:28:30;;;;;;;6.47;1.30;;;;;;;9.88;100.00;95408.09;5063849;28;20224;-70
2022/11/04 06:30:57;;;;;;;4.40;1.77;;;;;;;9.70;100.00;95410.41;5059096;28;20197;-69
2022/11/04 06:33:25;;;;;;;4.67;1.70;;;;;;;9.63;100.00;95394.78;5056939;28;20576;-70
2022/11/04 06:35:52;;;;;;;5.03;0.97;;;;;;;9.61;100.00;95384.44;5059939;28;20233;-69
2022/11/04 06:38:19;;;;;;;3.60;1.00;;;;;;;9.60;100.00;95382.00;5058815;28;20215;-71
2022/11/04 06:40:45;;;;;;;1.83;0.97;;;;;;;9.55;100.00;95394.94;5058442;28;20205;-68
2022/11/04 06:43:12;;;;;;;3.57;1.70;;;;;;;9.65;100.00;95403.28;5062329;28;20211;-69
2022/11/04 06:45:38;;;;;;;7.97;1.60;;;;;;;9.60;100.00;95390.72;5058226;28;20224;-68
2022/11/04 06:48:05;;;;;;;6.63;2.00;;;;;;;9.60;100.00;95388.09;5061375;28;20231;-71
2022/11/04 06:50:33;;;;;;;3.50;2.07;;;;;;;9.64;100.00;95375.38;5062957;28;20200;-68
2022/11/04 06:53:00;;;;;;;4.80;2.10;;;;;;;9.50;100.00;95363.94;5057285;28;20204;-71
2022/11/04 06:55:26;;;;;;;3.03;1.33;;;;;;;9.57;100.00;95361.34;5059781;28;20231;-70
2022/11/04 06:57:53;;;;;;;1.20;1.10;;;;;;;9.57;100.00;95356.09;5058460;28;20680;-70
2022/11/04 07:00:20;;;;;;;2.43;1.03;;;;;;;9.60;100.00;95358.31;5058086;28;20216;-69
2022/11/04 07:02:46;;;;;;;3.37;1.30;;;;;;;9.61;100.00;95370.47;5057555;28;20204;-71
2022/11/04 07:05:13;;;;;;;3.90;1.17;;;;;;;9.61;100.00;95378.38;5058343;28;20204;-71
2022/11/04 07:07:41;;;;;;;2.53;1.70;;;;;;;9.59;100.00;95375.94;5058088;28;20224;-70
2022/11/04 07:10:08;;;;;;;10.00;1.40;;;;;;;9.62;100.00;95377.38;5057567;28;20691;-71
2022/11/04 07:12:35;;;;;;;2.30;1.20;;;;;;;9.55;100.00;95384.41;5057553;28;20209;-70
2022/11/04 07:15:02;;;;;;;3.23;1.23;;;;;;;9.50;100.00;95392.06;5061449;28;20199;-70
2022/11/04 07:17:28;;;;;;;2.67;1.47;;;;;;;9.53;100.00;95392.47;5058018;28;20443;-71
2022/11/04 07:19:55;;;;;;;3.10;1.60;;;;;;;9.55;100.00;95394.94;5057985;28;20203;-69
2022/11/04 07:22:21;;;;;;;6.33;1.90;;;;;;;9.41;100.00;95395.81;5054631;28;20589;-70
2022/11/04 07:24:49;;;;;;;6.30;2.10;;;;;;;9.61;100.00;95402.03;5059516;28;20215;-68
2022/11/04 07:27:16;;;;;;;2.83;2.00;;;;;;;9.52;100.00;95403.19;5057536;28;20235;-70
2022/11/04 07:29:42;;;;;;;4.17;2.00;;;;;;;9.57;100.00;95398.16;5057750;28;20204;-70
2022/11/04 07:32:09;;;;;;;5.63;2.60;;;;;;;9.48;100.00;95410.66;5057615;28;20208;-70
2022/11/04 07:34:35;;;;;;;4.80;2.97;;;;;;;9.43;100.00;95407.78;5056925;28;20208;-70
2022/11/04 07:37:02;;;;;;;6.97;3.00;;;;;;;9.48;100.00;95415.09;5056883;28;20232;-69
2022/11/04 07:39:28;;;;;;;5.37;2.63;;;;;;;9.51;100.00;95406.81;5057113;28;21208;-68
2022/11/04 07:41:56;;;;;;;5.87;2.87;;;;;;;9.61;100.00;95405.50;5064612;28;20204;-69
2022/11/04 07:44:23;;;;;;;4.33;2.80;;;;;;;9.60;100.00;95416.19;5055423;28;20211;-70
2022/11/04 07:46:50;;;;;;;10.13;3.87;;;;;;;9.58;100.00;95419.00;5063439;28;20688;-68
2022/11/04 07:49:16;;;;;;;7.67;3.40;;;;;;;9.62;100.00;95422.06;5055902;28;20246;-69
2022/11/04 07:51:43;;;;;;;5.07;3.13;;;;;;;9.62;100.00;95433.41;5064909;28;20203;-69
2022/11/04 07:54:10;;;;;;;4.17;2.37;;;;;;;9.64;100.00;95434.03;5055927;28;20208;-68
2022/11/04 07:56:36;;;;;;;3.57;2.30;;;;;;;9.66;100.00;95444.34;5055531;28;20217;-69
2022/11/04 07:59:06;;;;;;;2.83;1.53;;;;;;;9.77;100.00;95447.28;5055598;28;20205;-69
2022/11/04 08:01:33;;;;;;;4.20;2.00;;;;;;;9.60;100.00;95445.09;5052916;28;21077;-70
2022/11/04 08:04:00;;;;;;;3.07;1.57;;;;;;;9.66;100.00;95444.34;5054781;28;20209;-71
2022/11/04 08:06:26;;;;;;;4.90;1.70;;;;;;;9.71;100.00;95446.25;5055856;28;20231;-71
2022/11/04 08:08:53;;;;;;;2.70;1.40;;;;;;;9.77;100.00;95436.75;5055199;28;20225;-70
2022/11/04 08:11:23;;;;;;;2.60;1.77;;;;;;;9.73;100.00;95444.22;5055812;28;20208;-70
2022/11/04 08:13:50;;;;;;;2.90;1.57;;;;;;;9.82;100.00;95434.38;5054558;28;20204;-70
2022/11/04 08:16:20;;;;;;;2.83;1.50;;;;;;;9.94;100.00;95432.84;5062868;28;20224;-70
2022/11/04 08:18:48;;;;;;;2.23;1.30;;;;;;;9.76;100.00;95435.97;5055500;28;20948;-69
2022/11/04 08:21:15;;;;;;;2.47;1.50;;;;;;;9.84;100.00;95438.44;5055434;28;20204;-71
2022/11/04 08:23:42;;;;;;;1.80;1.20;;;;;;;9.77;100.00;95434.94;5055095;28;20219;-71
2022/11/04 08:26:11;;;;;;;1.73;1.23;;;;;;;9.85;100.00;95434.81;5057924;28;20319;-70
2022/11/04 08:28:38;;;;;;;1.83;1.27;;;;;;;9.78;100.00;95444.47;5057070;28;20228;-70
2022/11/04 08:31:08;;;;;;;2.13;1.30;;;;;;;9.92;100.00;95446.19;5055200;28;20218;-70
2022/11/04 08:33:36;;;;;;;2.87;1.70;;;;;;;9.98;100.00;95434.94;5054380;28;20687;-71
2022/11/04 08:36:05;;;;;;;4.17;2.00;;;;;;;10.04;100.00;95439.44;5063265;28;20236;-70
2022/11/04 08:38:33;;;;;;;4.20;1.90;;;;;;;9.93;100.00;95441.75;5058439;28;20193;-71
2022/11/04 08:41:01;;;;;;;10.10;4.07;;;;;;;10.01;100.00;95439.78;5055489;28;20692;-69
2022/11/04 08:43:28;;;;;;;11.33;4.23;;;;;;;10.00;100.00;95446.06;5058246;28;20669;-70
2022/11/04 08:45:54;;;;;;;10.00;4.40;;;;;;;10.08;100.00;95443.31;5055100;28;20216;-69
2022/11/04 08:48:21;;;;;;;8.87;3.87;;;;;;;10.10;100.00;95441.28;5055271;28;20228;-70
2022/11/04 08:50:50;;;;;;;19.27;6.47;;;;;;;10.13;100.00;95438.28;5062965;28;20200;-69
2022/11/04 08:53:17;;;;;;;19.53;5.90;;;;;;;10.14;100.00;95433.81;5055643;28;20211;-70
2022/11/04 08:55:44;;;;;;;11.80;4.40;;;;;;;10.16;100.00;95437.88;5055171;28;20792;-70
2022/11/04 08:58:11;;;;;;;20.23;6.70;;;;;;;10.18;100.00;95437.69;5060097;28;20555;-69
2022/11/04 09:00:38;;;;;;;20.67;6.87;;;;;;;10.24;100.00;95434.28;5068373;28;20214;-71
2022/11/04 09:03:05;;;;;;;19.60;4.50;;;;;;;10.26;100.00;95432.25;5057938;28;20217;-69
2022/11/04 09:05:32;;;;;;;10.63;4.27;;;;;;;10.31;100.00;95422.78;5068020;28;20227;-69
2022/11/04 09:08:01;;;;;;;10.33;2.90;;;;;;;10.43;100.00;95423.84;5059348;28;20250;-70
2022/11/04 09:10:27;;;;;;;5.43;2.50;;;;;;;10.28;100.00;95424.97;5059524;28;20208;-70
2022/11/04 09:12:54;;;;;;;6.07;2.50;;;;;;;10.39;100.00;95433.16;5057869;28;20270;-70
2022/11/04 09:15:20;;;;;;;3.20;2.13;;;;;;;10.44;100.00;95436.00;5056508;28;20236;-68
2022/11/04 09:17:47;;;;;;;3.90;2.37;;;;;;;10.32;100.00;95433.13;5058784;28;20206;-71
2022/11/04 09:20:13;;;;;;;3.60;2.23;;;;;;;10.40;100.00;95424.25;5064474;28;20578;-69
2022/11/04 09:22:40;;;;;;;3.60;1.77;;;;;;;10.33;100.00;95418.94;5059602;28;20219;-69
2022/11/04 09:25:09;;;;;;;4.37;2.00;;;;;;;10.38;100.00;95410.44;5065608;28;20209;-71
2022/11/04 09:27:35;;;;;;;4.57;1.70;;;;;;;10.39;100.00;95417.34;5058018;28;20696;-71
2022/11/04 09:30:02;;;;;;;9.73;3.17;;;;;;;10.32;100.00;95411.22;5057437;28;20224;-68
2022/11/04 09:32:28;;;;;;;3.77;2.30;;;;;;;10.45;100.00;95411.28;5058005;28;20209;-71
2022/11/04 09:34:55;;;;;;;3.33;1.90;;;;;;;10.36;100.00;95402.75;5065984;28;20216;-71
2022/11/04 09:37:22;;;;;;;4.47;1.70;;;;;;;10.51;100.00;95402.59;5057871;28;20234;-70
2022/11/04 09:39:48;;;;;;;2.30;1.50;;;;;;;10.44;100.00;95393.88;5058351;28;20200;-71
2022/11/04 09:42:33;;;;;;;3.77;2.10;;;;;;;10.47;100.00;95394.28;5057713;28;20201;-70
2022/11/04 09:45:03;;;;;;;3.50;1.70;;;;;;;10.47;100.00;95390.84;5058005;28;20205;-71
2022/11/04 09:47:32;;;;;;;3.80;1.67;;;;;;;10.50;100.00;95396.53;5057995;28;20290;-71
2022/11/04 09:50:00;;;;;;;6.33;2.17;;;;;;;10.51;100.00;95395.53;5060309;28;20620;-70
2022/11/04 09:52:30;;;;;;;5.30;1.73;;;;;;;10.55;100.00;95382.75;5063357;28;20210;-71
2022/11/04 09:55:04;;;;;;;2.73;1.37;;;;;;;10.51;100.00;95381.53;5057484;28;20208;-69
2022/11/04 09:57:32;;;;;;;3.33;1.50;;;;;;;10.49;100.00;95373.03;5057616;28;20215;-70
2022/11/04 09:59:59;;;;;;;7.43;1.80;;;;;;;10.44;100.00;95389.41;5057828;28;20234;-69
2022/11/04 10:02:55;;;;;;;3.73;1.53;;;;;;;10.41;100.00;95386.34;5056925;28;20370;-70
2022/11/04 10:05:37;;;;;;;3.80;1.70;;;;;;;10.39;100.00;95396.28;5057392;28;20232;-69
2022/11/04 10:08:37;;;;;;;3.13;1.70;;;;;;;10.55;100.00;95398.56;5057445;28;21031;-70
2022/11/04 10:11:11;;;;;;;4.60;2.03;;;;;;;10.54;100.00;95402.22;5053249;28;20336;-71
2022/11/04 10:13:53;;;;;;;8.30;2.20;;;;;;;10.70;100.00;95399.22;5065737;28;20657;-68
2022/11/04 10:16:34;;;;;;;8.57;4.63;;;;;;;10.78;100.00;95409.59;5057502;28;20227;-70
2022/11/04 10:19:15;;;;;;;6.70;3.10;;;;;;;10.82;100.00;95402.91;5057641;28;20771;-71
2022/11/04 10:21:49;;;;;;;5.13;2.87;;;;;;;10.79;100.00;95405.94;5058470;28;20211;-70
2022/11/04 10:24:23;;;;;;;16.87;7.00;;;;;;;10.97;100.00;95405.19;5056471;28;20205;-68
2022/11/04 10:26:57;;;;;;;15.50;5.67;;;;;;;10.97;100.00;95399.09;5065971;28;20235;-71
2022/11/04 10:29:29;;;;;;;11.70;3.97;;;;;;;10.82;100.00;95397.63;5058522;28;20498;-70
2022/11/04 10:31:58;;;;;;;6.43;2.77;;;;;;;10.85;100.00;95394.63;5057255;28;20209;-69
2022/11/04 10:34:32;;;;;;;11.97;4.20;;;;;;;10.91;100.00;95386.75;5056660;28;20212;-69
2022/11/04 10:36:59;;;;;;;8.67;3.63;;;;;;;10.83;100.00;95386.09;5057671;28;20346;-70
2022/11/04 10:39:32;;;;;;;2.70;1.83;;;;;;;10.90;100.00;95385.09;5058153;28;20211;-71
2022/11/04 10:41:58;;;;;;;5.47;2.00;;;;;;;10.82;100.00;95368.66;5058066;28;20498;-69
2022/11/04 10:44:30;;;;;;;3.77;2.07;;;;;;;11.04;100.00;95361.19;5057761;28;20205;-71
2022/11/04 10:47:08;;;;;;;3.23;1.63;;;;;;;11.02;100.00;95360.59;5065595;28;20219;-69
2022/11/04 10:49:44;;;;;;;3.10;1.43;;;;;;;10.80;100.00;95341.69;5056580;28;21087;-70
2022/11/04 10:52:11;;;;;;;2.93;1.73;;;;;;;10.90;100.00;95342.94;5056986;28;20208;-71
2022/11/04 10:54:41;;;;;;;4.27;1.70;;;;;;;10.90;100.00;95342.13;5056051;28;20216;-71
2022/11/04 10:57:07;;;;;;;7.93;1.83;;;;;;;10.88;100.00;95346.78;5064247;28;20235;-70
2022/11/04 10:59:47;;;;;;;8.30;1.90;;;;;;;11.16;100.00;95335.88;5057011;28;20560;-69
2022/11/04 11:02:13;;;;;;;5.20;2.00;;;;;;;11.25;100.00;95339.94;5064805;28;20208;-70
2022/11/04 11:04:40;;;;;;;5.30;2.00;;;;;;;11.23;100.00;95336.69;5056548;28;20204;-68
2022/11/04 11:07:09;;;;;;;3.10;1.63;;;;;;;11.32;100.00;95335.47;5056670;28;20638;-69
2022/11/04 11:09:42;;;;;;;4.73;1.93;;;;;;;11.31;100.00;95341.75;5056742;28;20224;-71
2022/11/04 11:12:23;;;;;;;5.27;1.40;;;;;;;11.26;100.00;95336.25;5056130;28;20215;-70
2022/11/04 11:14:50;;;;;;;3.33;1.70;;;;;;;11.16;100.00;95338.50;5056942;28;20200;-70
2022/11/04 11:17:20;;;;;;;4.77;1.53;;;;;;;11.24;100.00;95335.66;5056718;28;20229;-71
2022/11/04 11:19:50;;;;;;;3.07;1.57;;;;;;;11.13;100.00;95341.53;5056270;28;20196;-70
2022/11/04 11:22:42;;;;;;;4.37;1.80;;;;;;;11.21;100.00;95341.31;5058072;28;20250;-71
2022/11/04 11:25:22;;;;;;;3.40;1.70;;;;;;;11.11;100.00;95345.38;5041244;28;20204;-71
2022/11/04 11:27:51;;;;;;;3.60;1.80;;;;;;;11.09;100.00;95340.31;5063182;28;20195;-70
2022/11/04 11:30:28;;;;;;;5.67;1.97;;;;;;;11.39;100.00;95338.94;5062258;28;20224;-70
2022/11/04 11:33:00;;;;;;;4.40;1.97;;;;;;;11.31;100.00;95341.75;5055633;28;20754;-71
2022/11/04 11:35:31;;;;;;;4.53;2.37;;;;;;;11.40;100.00;95337.88;5056958;28;20232;-71
2022/11/04 11:38:00;;;;;;;7.10;2.67;;;;;;;11.26;100.00;95341.53;5060875;28;20196;-71
2022/11/04 11:40:30;;;;;;;5.97;2.50;;;;;;;11.18;100.00;95339.09;5055647;28;20288;-72
2022/11/04 11:42:58;;;;;;;3.40;2.03;;;;;;;11.14;100.00;95329.19;5057093;28;21092;-71
2022/11/04 11:45:27;;;;;;;5.33;2.63;;;;;;;11.14;100.00;95337.09;5056182;28;20220;-71
2022/11/04 11:47:55;;;;;;;4.63;2.80;;;;;;;11.13;100.00;95333.63;5055945;28;20204;-70
2022/11/04 11:50:29;;;;;;;5.77;3.60;;;;;;;11.29;100.00;95338.50;5055574;28;20735;-71
2022/11/04 11:53:13;;;;;;;7.23;2.70;;;;;;;11.45;100.00;95353.13;5055311;28;20207;-72
2022/11/04 11:55:44;;;;;;;6.93;2.83;;;;;;;11.45;100.00;95347.84;5057884;28;20224;-71
2022/11/04 11:58:19;;;;;;;6.97;3.50;;;;;;;11.41;100.00;95360.63;5055450;28;20200;-72
2022/11/04 12:00:51;;;;;;;5.83;3.00;;;;;;;11.55;100.00;95371.00;5055831;28;20196;-71
2022/11/04 12:03:25;;;;;;;7.30;3.67;;;;;;;11.68;100.00;95364.91;5055136;28;20218;-70
2022/11/04 12:06:00;;;;;;;14.63;4.93;;;;;;;11.60;100.00;95378.31;5054140;28;20227;-71
2022/11/04 12:08:43;;;;;;;13.40;4.30;;;;;;;11.65;98.97;95378.50;5067170;28;20207;-71
2022/11/04 12:11:16;;;;;;;8.47;3.23;;;;;;;11.50;97.68;95372.63;5055566;28;20215;-71
2022/11/04 12:13:48;;;;;;;6.87;3.17;;;;;;;11.71;98.32;95375.03;5055308;28;20204;-71